createdAt,value
2024-02-19T00:00:54.874Z,69.40
2024-02-19T00:01:55.070Z,69.26
2024-02-19T00:02:54.960Z,69.17
2024-02-19T00:03:55.021Z,69.24
2024-02-19T00:04:55.053Z,69.11
2024-02-19T00:05:55.097Z,69.15
2024-02-19T00:06:55.152Z,69.15
2024-02-19T00:07:55.313Z,69.34
2024-02-19T00:08:55.220Z,69.77
2024-02-19T00:09:55.232Z,69.83
2024-02-19T00:10:55.222Z,69.79
2024-02-19T00:11:55.255Z,70.07
2024-02-19T00:12:55.446Z,70.09
2024-02-19T00:13:55.357Z,70.18
2024-02-19T00:14:55.422Z,69.12
2024-02-19T00:15:55.476Z,69.03
2024-02-19T00:16:55.460Z,68.95
2024-02-19T00:17:55.579Z,68.98
2024-02-19T00:18:55.814Z,68.20
2024-02-19T00:19:55.666Z,68.51
2024-02-19T00:20:55.689Z,68.89
2024-02-19T00:21:55.745Z,69.70
2024-02-19T00:22:55.825Z,69.94
2024-02-19T00:23:55.831Z,70.51
2024-02-19T00:24:55.867Z,70.98
2024-02-19T00:25:55.903Z,71.49
2024-02-19T00:26:55.963Z,71.48
2024-02-19T00:27:56.043Z,72.06
2024-02-19T00:28:55.968Z,72.62
2024-02-19T00:29:55.941Z,72.33
2024-02-19T00:30:56.097Z,72.77
2024-02-19T00:31:56.144Z,72.88
2024-02-19T00:32:56.280Z,72.98
2024-02-19T00:33:56.444Z,73.30
2024-02-19T00:34:56.302Z,72.76
2024-02-19T00:35:56.304Z,72.58
2024-02-19T00:36:56.416Z,72.48
2024-02-19T00:37:56.425Z,72.63
2024-02-19T00:38:56.442Z,72.37
2024-02-19T00:39:57.013Z,72.38
2024-02-19T00:40:56.524Z,72.68
2024-02-19T00:41:56.549Z,72.92
2024-02-19T00:42:56.714Z,72.77
2024-02-19T00:43:56.656Z,72.85
2024-02-19T00:44:56.662Z,72.55
2024-02-19T00:45:56.877Z,72.45
2024-02-19T00:46:56.796Z,72.51
2024-02-19T00:47:56.824Z,71.20
2024-02-19T00:48:56.834Z,71.05
2024-02-19T00:49:57.005Z,71.41
2024-02-19T00:50:56.893Z,71.21
2024-02-19T00:51:56.966Z,71.59
2024-02-19T00:52:57.010Z,72.25
2024-02-19T00:53:57.065Z,72.46
2024-02-19T00:54:57.183Z,72.74
2024-02-19T00:55:57.141Z,72.59
2024-02-19T00:56:57.251Z,72.88
2024-02-19T00:57:57.317Z,73.15
2024-02-19T00:58:57.299Z,73.26
2024-02-19T00:59:57.348Z,73.32
2024-02-19T01:00:57.454Z,73.41
2024-02-19T01:01:57.650Z,73.42
2024-02-19T01:02:57.513Z,73.17
2024-02-19T01:03:57.568Z,72.98
2024-02-19T01:04:57.649Z,72.76
2024-02-19T01:05:57.633Z,72.50
2024-02-19T01:06:57.735Z,72.33
2024-02-19T01:07:58.087Z,72.15
2024-02-19T01:08:57.640Z,72.39
2024-02-19T01:09:57.784Z,72.20
2024-02-19T01:10:57.781Z,72.04
2024-02-19T01:11:57.865Z,72.13
2024-02-19T01:12:57.914Z,72.12
2024-02-19T01:13:57.875Z,72.03
2024-02-19T01:14:57.980Z,71.88
2024-02-19T01:15:57.979Z,71.95
2024-02-19T01:16:58.038Z,72.06
2024-02-19T01:17:58.100Z,71.97
2024-02-19T01:18:58.264Z,71.90
2024-02-19T01:19:58.263Z,71.91
2024-02-19T01:20:58.218Z,72.10
2024-02-19T01:21:58.318Z,72.05
2024-02-19T01:22:58.332Z,72.03
2024-02-19T01:23:58.252Z,72.31
2024-02-19T01:24:58.351Z,72.20
2024-02-19T01:25:58.394Z,71.99
2024-02-19T01:26:58.408Z,72.44
2024-02-19T01:27:58.487Z,73.06
2024-02-19T01:28:58.472Z,73.68
2024-02-19T01:29:58.512Z,73.64
2024-02-19T01:30:58.623Z,73.28
2024-02-19T01:31:58.641Z,73.14
2024-02-19T01:32:58.736Z,73.06
2024-02-19T01:33:58.788Z,72.78
2024-02-19T01:34:59.010Z,72.52
2024-02-19T01:35:58.871Z,72.74
2024-02-19T01:36:59.029Z,72.83
2024-02-19T01:37:58.945Z,72.63
2024-02-19T01:38:58.948Z,72.22
2024-02-19T01:39:59.004Z,72.50
2024-02-19T01:40:59.105Z,72.63
2024-02-19T01:41:59.282Z,72.39
2024-02-19T01:42:59.254Z,72.24
2024-02-19T01:43:59.219Z,72.18
2024-02-19T01:44:59.286Z,72.48
2024-02-19T01:45:59.253Z,72.61
2024-02-19T01:46:59.290Z,72.59
2024-02-19T01:47:59.539Z,72.94
2024-02-19T01:48:59.382Z,73.08
2024-02-19T01:49:59.469Z,72.72
2024-02-19T01:50:59.501Z,72.77
2024-02-19T01:51:59.584Z,72.76
2024-02-19T01:52:59.554Z,72.65
2024-02-19T01:53:59.583Z,72.76
2024-02-19T01:54:59.712Z,73.04
2024-02-19T01:55:59.711Z,72.93
2024-02-19T01:56:59.699Z,72.90
2024-02-19T01:57:59.862Z,72.86
2024-02-19T01:58:59.842Z,72.64
2024-02-19T01:59:59.842Z,72.65
2024-02-19T02:01:00.084Z,72.70
2024-02-19T02:01:59.995Z,72.69
2024-02-19T02:03:00.103Z,72.61
2024-02-19T02:04:00.126Z,72.81
2024-02-19T02:05:00.059Z,72.95
2024-02-19T02:06:00.133Z,72.63
2024-02-19T02:07:00.270Z,72.32
2024-02-19T02:08:00.875Z,71.97
2024-02-19T02:09:00.206Z,71.53
2024-02-19T02:10:00.329Z,72.02
2024-02-19T02:11:00.415Z,72.28
2024-02-19T02:12:00.309Z,72.78
2024-02-19T02:13:00.475Z,72.78
2024-02-19T02:14:00.430Z,72.87
2024-02-19T02:15:00.455Z,73.19
2024-02-19T02:16:00.507Z,73.31
2024-02-19T02:17:00.545Z,73.77
2024-02-19T02:18:00.629Z,73.61
2024-02-19T02:19:00.778Z,73.20
2024-02-19T02:20:00.852Z,73.24
2024-02-19T02:21:00.710Z,73.07
2024-02-19T02:22:00.743Z,72.83
2024-02-19T02:23:00.694Z,72.85
2024-02-19T02:24:00.805Z,72.71
2024-02-19T02:25:00.833Z,72.77
2024-02-19T02:26:00.817Z,72.84
2024-02-19T02:27:00.849Z,72.81
2024-02-19T02:28:00.998Z,72.92
2024-02-19T02:29:00.952Z,72.99
2024-02-19T02:30:00.968Z,72.88
2024-02-19T02:31:01.096Z,72.51
2024-02-19T02:32:01.069Z,72.42
2024-02-19T02:33:01.221Z,72.81
2024-02-19T02:34:01.445Z,73.20
2024-02-19T02:35:01.148Z,73.51
2024-02-19T02:36:01.160Z,73.68
2024-02-19T02:37:01.245Z,73.24
2024-02-19T02:38:01.403Z,72.82
2024-02-19T02:39:01.344Z,73.05
2024-02-19T02:40:01.293Z,73.34
2024-02-19T02:41:01.336Z,73.52
2024-02-19T02:42:01.308Z,73.30
2024-02-19T02:43:01.373Z,73.77
2024-02-19T02:44:01.354Z,73.41
2024-02-19T02:45:01.364Z,73.16
2024-02-19T02:46:01.486Z,72.98
2024-02-19T02:47:01.475Z,73.07
2024-02-19T02:48:01.653Z,72.67
2024-02-19T02:49:01.808Z,72.17
2024-02-19T02:50:01.666Z,71.82
2024-02-19T02:51:01.695Z,72.37
2024-02-19T02:52:01.748Z,73.28
2024-02-19T02:53:01.779Z,73.76
2024-02-19T02:54:01.763Z,73.77
2024-02-19T02:55:01.846Z,73.61
2024-02-19T02:56:01.846Z,73.73
2024-02-19T02:57:01.914Z,73.69
2024-02-19T02:58:01.988Z,73.53
2024-02-19T02:59:02.023Z,73.56
2024-02-19T03:00:02.050Z,73.23
2024-02-19T03:01:02.163Z,72.97
2024-02-19T03:02:02.199Z,72.56
2024-02-19T03:03:02.186Z,72.30
2024-02-19T03:04:02.263Z,72.33
2024-02-19T03:05:02.270Z,71.99
2024-02-19T03:06:02.324Z,72.00
2024-02-19T03:07:02.439Z,71.96
2024-02-19T03:08:02.395Z,72.29
2024-02-19T03:09:02.453Z,72.11
2024-02-19T03:10:02.531Z,71.94
2024-02-19T03:11:02.598Z,71.99
2024-02-19T03:12:02.545Z,71.37
2024-02-19T03:13:02.615Z,71.08
2024-02-19T03:14:02.668Z,71.04
2024-02-19T03:15:02.674Z,70.91
2024-02-19T03:16:02.818Z,70.83
2024-02-19T03:17:02.621Z,70.43
2024-02-19T03:18:02.768Z,70.32
2024-02-19T03:19:02.767Z,70.50
2024-02-19T03:20:02.748Z,70.89
2024-02-19T03:21:02.827Z,71.02
2024-02-19T03:22:02.869Z,71.26
2024-02-19T03:23:02.970Z,71.45
2024-02-19T03:24:02.984Z,71.85
2024-02-19T03:25:03.158Z,73.04
2024-02-19T03:26:03.114Z,73.37
2024-02-19T03:27:03.080Z,73.65
2024-02-19T03:28:03.152Z,73.63
2024-02-19T03:29:03.150Z,73.43
2024-02-19T03:30:03.250Z,73.23
2024-02-19T03:31:03.332Z,72.87
2024-02-19T03:32:03.314Z,73.00
2024-02-19T03:33:03.502Z,73.34
2024-02-19T03:34:03.539Z,73.73
2024-02-19T03:35:03.454Z,73.94
2024-02-19T03:36:03.426Z,74.19
2024-02-19T03:37:03.480Z,74.56
2024-02-19T03:38:03.533Z,74.51
2024-02-19T03:39:03.696Z,74.29
2024-02-19T03:40:03.695Z,73.99
2024-02-19T03:41:03.689Z,73.84
2024-02-19T03:42:03.747Z,73.59
2024-02-19T03:43:03.879Z,73.45
2024-02-19T03:44:03.843Z,73.51
2024-02-19T03:45:04.755Z,73.68
2024-02-19T03:46:04.008Z,73.75
2024-02-19T03:47:03.989Z,73.56
2024-02-19T03:48:04.043Z,73.26
2024-02-19T03:49:04.217Z,72.78
2024-02-19T03:50:04.083Z,72.60
2024-02-19T03:51:04.094Z,72.28
2024-02-19T03:52:04.252Z,72.49
2024-02-19T03:53:04.214Z,72.82
2024-02-19T03:54:04.368Z,72.89
2024-02-19T03:55:04.316Z,72.96
2024-02-19T03:56:04.377Z,73.60
2024-02-19T03:57:04.414Z,74.68
2024-02-19T03:58:04.460Z,75.49
2024-02-19T03:59:04.482Z,76.34
2024-02-19T04:00:04.458Z,76.88
2024-02-19T04:01:08.217Z,77.26
2024-02-19T04:02:04.527Z,77.35
2024-02-19T04:03:04.524Z,77.63
2024-02-19T04:04:04.607Z,77.52
2024-02-19T04:05:04.567Z,77.06
2024-02-19T04:06:04.542Z,76.91
2024-02-19T04:07:04.647Z,76.84
2024-02-19T04:08:06.557Z,76.80
2024-02-19T04:09:04.532Z,76.72
2024-02-19T04:10:04.581Z,76.56
2024-02-19T04:11:04.553Z,76.85
2024-02-19T04:12:04.538Z,76.91
2024-02-19T04:13:04.581Z,76.72
2024-02-19T04:14:04.588Z,76.35
2024-02-19T04:15:04.570Z,76.20
2024-02-19T04:16:04.609Z,76.07
2024-02-19T04:17:06.948Z,76.08
2024-02-19T04:18:04.703Z,76.17
2024-02-19T04:19:04.684Z,76.18
2024-02-19T04:20:04.582Z,76.63
2024-02-19T04:21:04.548Z,76.68
2024-02-19T04:22:04.757Z,76.74
2024-02-19T04:23:04.609Z,76.87
2024-02-19T04:24:04.558Z,77.11
2024-02-19T04:25:04.610Z,77.19
2024-02-19T04:26:04.549Z,77.30
2024-02-19T04:27:04.560Z,77.24
2024-02-19T04:28:04.685Z,77.32
2024-02-19T04:29:04.553Z,77.15
2024-02-19T04:30:04.596Z,77.22
2024-02-19T04:31:04.624Z,77.41
2024-02-19T04:32:04.586Z,77.91
2024-02-19T04:33:04.681Z,78.14
2024-02-19T04:34:04.742Z,78.44
2024-02-19T04:35:04.720Z,78.33
2024-02-19T04:36:05.650Z,78.34
2024-02-19T04:37:04.606Z,78.05
2024-02-19T04:38:04.642Z,78.09
2024-02-19T04:39:04.666Z,78.51
2024-02-19T04:40:04.622Z,78.71
2024-02-19T04:41:04.725Z,78.76
2024-02-19T04:42:04.590Z,78.77
2024-02-19T04:43:05.103Z,79.14
2024-02-19T04:44:04.613Z,79.73
2024-02-19T04:45:04.720Z,79.63
2024-02-19T04:46:04.741Z,79.50
2024-02-19T04:47:04.773Z,79.31
2024-02-19T04:48:04.926Z,79.07
2024-02-19T04:49:04.961Z,78.98
2024-02-19T04:50:05.009Z,79.42
2024-02-19T04:51:04.943Z,79.95
2024-02-19T04:52:05.078Z,79.99
2024-02-19T04:53:05.019Z,80.20
2024-02-19T04:54:04.940Z,80.61
2024-02-19T04:55:05.073Z,80.78
2024-02-19T04:56:04.970Z,81.01
2024-02-19T04:57:05.166Z,81.78
2024-02-19T04:58:12.911Z,81.87
2024-02-19T04:59:12.884Z,81.83
2024-02-19T05:00:12.917Z,82.16
2024-02-19T05:01:12.988Z,81.97
2024-02-19T05:02:12.937Z,81.40
2024-02-19T05:03:14.807Z,81.15
2024-02-19T05:04:12.985Z,80.80
2024-02-19T05:05:13.034Z,80.46
2024-02-19T05:06:12.882Z,79.96
2024-02-19T05:07:12.866Z,80.09
2024-02-19T05:08:12.953Z,80.27
2024-02-19T05:09:12.851Z,79.85
2024-02-19T05:10:12.910Z,79.62
2024-02-19T05:11:12.981Z,79.61
2024-02-19T05:12:12.869Z,79.63
2024-02-19T05:13:13.023Z,79.67
2024-02-19T05:14:12.941Z,80.45
2024-02-19T05:15:12.928Z,80.84
2024-02-19T05:16:12.919Z,80.67
2024-02-19T05:17:12.894Z,79.99
2024-02-19T05:18:13.058Z,79.78
2024-02-19T05:19:13.082Z,79.39
2024-02-19T05:20:12.916Z,79.12
2024-02-19T05:21:12.889Z,78.89
2024-02-19T05:22:12.960Z,78.76
2024-02-19T05:23:12.935Z,78.66
2024-02-19T05:24:12.906Z,78.61
2024-02-19T05:25:12.855Z,78.45
2024-02-19T05:26:12.989Z,78.30
2024-02-19T05:27:12.933Z,78.27
2024-02-19T05:28:13.115Z,78.36
2024-02-19T05:29:12.914Z,78.34
2024-02-19T05:30:12.982Z,78.29
2024-02-19T05:31:13.029Z,78.20
2024-02-19T05:32:13.577Z,78.28
2024-02-19T05:33:12.915Z,78.23
2024-02-19T05:34:13.138Z,78.49
2024-02-19T05:35:12.907Z,79.13
2024-02-19T05:36:12.903Z,79.67
2024-02-19T05:37:12.945Z,79.68
2024-02-19T05:38:12.898Z,79.52
2024-02-19T05:39:12.950Z,79.25
2024-02-19T05:40:13.002Z,79.01
2024-02-19T05:41:12.923Z,78.25
2024-02-19T05:42:12.901Z,78.03
2024-02-19T05:43:12.980Z,78.41
2024-02-19T05:44:12.852Z,78.62
2024-02-19T05:45:12.976Z,78.58
2024-02-19T05:46:12.952Z,78.83
2024-02-19T05:47:12.893Z,78.75
2024-02-19T05:48:12.964Z,78.96
2024-02-19T05:49:12.974Z,79.03
2024-02-19T05:50:13.095Z,79.12
2024-02-19T05:51:12.889Z,79.28
2024-02-19T05:52:12.957Z,79.19
2024-02-19T05:53:13.009Z,79.06
2024-02-19T05:54:12.899Z,78.83
2024-02-19T05:55:13.041Z,78.38
2024-02-19T05:56:13.001Z,77.95
2024-02-19T05:57:13.051Z,77.87
2024-02-19T05:58:13.228Z,78.16
2024-02-19T05:59:13.150Z,78.24
2024-02-19T06:00:13.171Z,78.21
2024-02-19T06:01:13.238Z,78.21
2024-02-19T06:02:13.351Z,78.21
2024-02-19T06:03:14.295Z,78.42
2024-02-19T06:04:13.392Z,78.69
2024-02-19T06:05:13.364Z,79.48
2024-02-19T06:06:13.377Z,79.95
2024-02-19T06:07:13.534Z,80.02
2024-02-19T06:08:13.509Z,79.85
2024-02-19T06:09:13.459Z,79.38
2024-02-19T06:10:13.609Z,79.14
2024-02-19T06:11:13.572Z,79.09
2024-02-19T06:12:13.545Z,78.94
2024-02-19T06:13:13.737Z,78.82
2024-02-19T06:14:13.673Z,78.99
2024-02-19T06:15:13.703Z,78.97
2024-02-19T06:16:13.687Z,79.25
2024-02-19T06:17:13.892Z,79.70
2024-02-19T06:18:13.923Z,79.86
2024-02-19T06:19:14.106Z,79.98
2024-02-19T06:20:13.946Z,79.96
2024-02-19T06:21:14.034Z,79.63
2024-02-19T06:22:15.565Z,79.11
2024-02-19T06:23:14.368Z,78.91
2024-02-19T06:24:14.140Z,78.73
2024-02-19T06:25:14.245Z,78.64
2024-02-19T06:26:14.307Z,78.54
2024-02-19T06:27:14.304Z,78.54
2024-02-19T06:28:14.626Z,78.25
2024-02-19T06:29:14.439Z,78.01
2024-02-19T06:30:14.535Z,77.81
2024-02-19T06:31:14.627Z,77.75
2024-02-19T06:32:14.603Z,77.61
2024-02-19T06:33:14.779Z,77.72
2024-02-19T06:34:14.842Z,77.79
2024-02-19T06:35:14.808Z,77.69
2024-02-19T06:36:14.733Z,77.73
2024-02-19T06:37:14.783Z,77.58
2024-02-19T06:38:14.811Z,77.68
2024-02-19T06:39:14.855Z,77.69
2024-02-19T06:40:14.997Z,77.70
2024-02-19T06:41:14.969Z,77.57
2024-02-19T06:42:14.992Z,77.75
2024-02-19T06:43:15.099Z,77.92
2024-02-19T06:44:15.061Z,78.44
2024-02-19T06:45:15.064Z,79.07
2024-02-19T06:46:15.103Z,79.52
2024-02-19T06:47:18.606Z,79.39
2024-02-19T06:48:15.329Z,79.06
2024-02-19T06:49:15.261Z,79.00
2024-02-19T06:50:15.275Z,79.21
2024-02-19T06:51:15.174Z,79.29
2024-02-19T06:52:15.124Z,79.07
2024-02-19T06:53:15.266Z,79.10
2024-02-19T06:54:15.140Z,78.97
2024-02-19T06:55:15.413Z,78.53
2024-02-19T06:56:17.047Z,78.34
2024-02-19T06:57:15.130Z,78.47
2024-02-19T06:58:16.391Z,78.63
2024-02-19T06:59:15.381Z,78.61
2024-02-19T07:00:15.199Z,78.64
2024-02-19T07:01:15.308Z,78.50
2024-02-19T07:02:15.253Z,78.33
2024-02-19T07:03:15.301Z,78.76
2024-02-19T07:04:15.348Z,79.17
2024-02-19T07:05:15.587Z,79.55
2024-02-19T07:06:15.373Z,79.99
2024-02-19T07:07:15.428Z,79.93
2024-02-19T07:08:15.597Z,79.95
2024-02-19T07:09:15.407Z,80.24
2024-02-19T07:10:15.485Z,80.59
2024-02-19T07:11:15.637Z,80.57
2024-02-19T07:12:15.571Z,80.38
2024-02-19T07:13:15.738Z,80.18
2024-02-19T07:14:15.658Z,80.14
2024-02-19T07:15:15.660Z,79.89
2024-02-19T07:16:15.911Z,79.64
2024-02-19T07:17:15.813Z,79.73
2024-02-19T07:18:15.986Z,79.35
2024-02-19T07:19:16.050Z,79.48
2024-02-19T07:20:16.185Z,79.61
2024-02-19T07:21:16.000Z,79.12
2024-02-19T07:22:16.092Z,79.14
2024-02-19T07:23:16.099Z,79.64
2024-02-19T07:24:16.158Z,79.76
2024-02-19T07:26:16.311Z,80.34
2024-02-19T07:27:16.354Z,81.34
2024-02-19T07:28:16.335Z,81.52
2024-02-19T07:29:16.259Z,81.61
2024-02-19T07:30:16.359Z,81.50
2024-02-19T07:31:16.425Z,82.04
2024-02-19T07:32:16.492Z,81.37
2024-02-19T07:33:16.621Z,81.12
2024-02-19T07:34:16.521Z,81.10
2024-02-19T07:35:16.519Z,80.95
2024-02-19T07:36:16.489Z,81.13
2024-02-19T07:37:16.628Z,81.14
2024-02-19T07:38:16.668Z,81.08
2024-02-19T07:39:16.604Z,81.31
2024-02-19T07:40:16.652Z,80.78
2024-02-19T07:41:16.626Z,80.87
2024-02-19T07:42:16.657Z,80.98
2024-02-19T07:43:16.714Z,81.24
2024-02-19T07:44:16.773Z,81.66
2024-02-19T07:45:18.175Z,81.82
2024-02-19T07:46:18.045Z,82.04
2024-02-19T07:47:18.478Z,81.75
2024-02-19T07:48:18.492Z,81.70
2024-02-19T07:49:17.627Z,81.43
2024-02-19T07:50:17.324Z,81.35
2024-02-19T07:51:17.636Z,81.17
2024-02-19T07:52:17.447Z,81.70
2024-02-19T07:53:18.233Z,81.91
2024-02-19T07:54:17.551Z,81.71
2024-02-19T07:55:17.388Z,81.75
2024-02-19T07:56:17.397Z,81.44
2024-02-19T07:57:17.470Z,81.29
2024-02-19T07:58:17.598Z,81.12
2024-02-19T07:59:17.486Z,80.58
2024-02-19T08:00:17.596Z,80.33
2024-02-19T08:01:17.731Z,80.02
2024-02-19T08:02:17.769Z,79.08
2024-02-19T08:03:17.712Z,79.00
2024-02-19T08:04:17.799Z,79.50
2024-02-19T08:05:18.044Z,79.80
2024-02-19T08:06:17.770Z,80.41
2024-02-19T08:07:17.919Z,80.72
2024-02-19T08:08:17.985Z,80.81
2024-02-19T08:09:19.507Z,80.82
2024-02-19T08:10:17.902Z,80.63
2024-02-19T08:11:17.908Z,80.54
2024-02-19T08:12:18.249Z,80.53
2024-02-19T08:13:18.982Z,80.68
2024-02-19T08:14:18.170Z,80.23
2024-02-19T08:15:18.141Z,79.57
2024-02-19T08:16:18.445Z,79.32
2024-02-19T08:17:18.224Z,79.53
2024-02-19T08:18:18.432Z,80.31
2024-02-19T08:19:18.548Z,80.45
2024-02-19T08:20:18.354Z,80.73
2024-02-19T08:21:18.353Z,80.94
2024-02-19T08:22:20.625Z,81.30
2024-02-19T08:23:36.329Z,81.65
2024-02-19T08:24:19.401Z,82.01
2024-02-19T08:25:18.552Z,81.78
2024-02-19T08:26:18.948Z,81.80
2024-02-19T08:27:18.531Z,81.74
2024-02-19T08:28:18.600Z,81.81
2024-02-19T08:29:18.614Z,81.68
2024-02-19T08:30:18.528Z,81.75
2024-02-19T08:31:18.604Z,81.68
2024-02-19T08:32:18.526Z,82.17
2024-02-19T08:33:18.530Z,82.19
2024-02-19T08:34:18.602Z,82.19
2024-02-19T08:35:18.584Z,82.45
2024-02-19T08:36:18.494Z,82.45
2024-02-19T08:37:18.796Z,82.38
2024-02-19T08:38:18.562Z,82.01
2024-02-19T08:39:18.539Z,81.77
2024-02-19T08:40:18.772Z,81.88
2024-02-19T08:42:30.774Z,82.34
2024-02-19T08:43:32.858Z,82.47
2024-02-19T08:44:32.129Z,83.00
2024-02-19T08:45:34.318Z,82.82
2024-02-19T08:46:29.730Z,82.63
2024-02-19T08:47:28.059Z,82.81
2024-02-19T08:48:28.516Z,82.69
2024-02-19T08:49:28.064Z,82.63
2024-02-19T08:50:27.996Z,82.26
2024-02-19T08:51:27.995Z,82.38
2024-02-19T08:52:28.155Z,82.61
2024-02-19T08:53:27.992Z,82.43
2024-02-19T08:54:27.978Z,81.97
2024-02-19T08:55:28.139Z,81.85
2024-02-19T08:56:28.002Z,82.24
2024-02-19T08:57:27.923Z,82.56
2024-02-19T08:58:28.097Z,82.55
2024-02-19T08:59:27.968Z,82.77
2024-02-19T09:00:30.247Z,82.65
2024-02-19T09:01:28.106Z,82.59
2024-02-19T09:02:28.032Z,81.83
2024-02-19T09:03:28.110Z,81.02
2024-02-19T09:04:28.097Z,80.95
2024-02-19T09:05:27.965Z,81.17
2024-02-19T09:06:28.007Z,81.15
2024-02-19T09:07:28.020Z,80.95
2024-02-19T09:08:28.006Z,80.67
2024-02-19T09:09:28.018Z,80.44
2024-02-19T09:10:27.989Z,79.94
2024-02-19T09:11:28.122Z,79.68
2024-02-19T09:12:27.967Z,79.49
2024-02-19T09:13:28.097Z,79.39
2024-02-19T09:14:27.990Z,79.08
2024-02-19T09:15:28.030Z,78.76
2024-02-19T09:16:28.871Z,78.74
2024-02-19T09:17:28.730Z,78.83
2024-02-19T09:18:28.701Z,78.00
2024-02-19T09:19:28.088Z,77.89
2024-02-19T09:20:28.231Z,77.67
2024-02-19T09:21:27.923Z,77.64
2024-02-19T09:22:28.070Z,77.86
2024-02-19T09:23:30.912Z,76.64
2024-02-19T09:24:28.033Z,77.26
2024-02-19T09:25:28.227Z,77.17
2024-02-19T09:26:28.000Z,76.97
2024-02-19T09:27:28.059Z,76.86
2024-02-19T09:28:28.067Z,76.54
2024-02-19T09:29:27.994Z,75.22
2024-02-19T09:30:28.016Z,74.71
2024-02-19T09:31:28.088Z,74.44
2024-02-19T09:32:28.011Z,74.46
2024-02-19T09:33:28.666Z,73.00
2024-02-19T09:34:28.080Z,74.37
2024-02-19T09:35:29.052Z,74.67
2024-02-19T09:36:28.326Z,74.62
2024-02-19T09:37:28.897Z,74.04
2024-02-19T09:38:28.484Z,73.01
2024-02-19T09:39:28.032Z,73.50
2024-02-19T09:40:28.082Z,73.43
2024-02-19T09:41:28.069Z,73.01
2024-02-19T09:42:28.159Z,72.46
2024-02-19T09:43:28.411Z,72.51
2024-02-19T09:44:28.296Z,72.70
2024-02-19T09:45:29.023Z,73.56
2024-02-19T09:46:28.966Z,73.53
2024-02-19T09:47:28.781Z,73.87
2024-02-19T09:48:28.931Z,73.73
2024-02-19T09:49:28.907Z,73.77
2024-02-19T09:50:28.964Z,73.83
2024-02-19T09:51:36.540Z,73.20
2024-02-19T09:52:30.610Z,73.25
2024-02-19T09:53:28.804Z,72.51
2024-02-19T09:54:28.707Z,73.12
2024-02-19T09:55:28.855Z,72.27
2024-02-19T09:56:28.766Z,72.06
2024-02-19T09:57:28.758Z,72.38
2024-02-19T09:58:28.912Z,72.34
2024-02-19T09:59:28.898Z,72.55
2024-02-19T10:00:28.915Z,73.16
2024-02-19T10:01:29.052Z,69.84
2024-02-19T10:02:29.066Z,70.53
2024-02-19T10:03:29.082Z,69.96
2024-02-19T10:04:29.215Z,70.96
2024-02-19T10:05:29.312Z,70.08
2024-02-19T10:06:29.799Z,70.59
2024-02-19T10:07:29.179Z,71.27
2024-02-19T10:08:29.247Z,70.85
2024-02-19T10:09:29.374Z,69.26
2024-02-19T10:10:29.341Z,70.25
2024-02-19T10:11:29.312Z,70.77
2024-02-19T10:12:29.286Z,71.80
2024-02-19T10:13:29.640Z,70.70
2024-02-19T10:14:29.736Z,68.98
2024-02-19T10:15:29.431Z,70.12
2024-02-19T10:16:29.637Z,70.23
2024-02-19T10:17:29.564Z,70.54
2024-02-19T10:18:29.763Z,70.37
2024-02-19T10:19:29.625Z,69.16
2024-02-19T10:20:29.685Z,67.82
2024-02-19T10:21:29.642Z,67.17
2024-02-19T10:22:29.642Z,67.05
2024-02-19T10:23:29.672Z,66.37
2024-02-19T10:24:29.672Z,65.45
2024-02-19T10:25:29.683Z,64.25
2024-02-19T10:26:29.953Z,64.21
2024-02-19T10:27:29.842Z,63.62
2024-02-19T10:28:30.049Z,64.09
2024-02-19T10:29:30.104Z,62.86
2024-02-19T10:30:30.105Z,64.06
2024-02-19T10:31:30.111Z,62.36
2024-02-19T10:32:30.098Z,62.54
2024-02-19T10:33:30.206Z,62.45
2024-02-19T10:34:30.152Z,61.88
2024-02-19T10:35:30.223Z,61.84
2024-02-19T10:36:30.148Z,60.45
2024-02-19T10:37:30.215Z,59.59
2024-02-19T10:38:30.329Z,59.37
2024-02-19T10:39:30.327Z,58.90
2024-02-19T10:40:34.522Z,58.29
2024-02-19T10:41:30.517Z,57.58
2024-02-19T10:42:31.129Z,59.32
2024-02-19T10:43:30.514Z,58.36
2024-02-19T10:44:30.313Z,58.15
2024-02-19T10:45:30.309Z,59.56
2024-02-19T10:46:30.990Z,58.33
2024-02-19T10:47:30.376Z,59.13
2024-02-19T10:48:30.446Z,58.45
2024-02-19T10:49:30.419Z,57.34
2024-02-19T10:50:30.535Z,55.66
2024-02-19T10:51:30.393Z,57.40
2024-02-19T10:52:30.569Z,57.25
2024-02-19T10:53:30.350Z,55.10
2024-02-19T10:54:30.355Z,55.90
2024-02-19T10:55:40.953Z,56.20
2024-02-19T10:56:31.328Z,57.10
2024-02-19T10:57:30.325Z,58.78
2024-02-19T10:58:30.514Z,56.80
2024-02-19T10:59:30.322Z,57.04
2024-02-19T11:00:30.410Z,55.96
2024-02-19T11:01:30.393Z,55.22
2024-02-19T11:02:30.387Z,54.93
2024-02-19T11:03:30.397Z,54.30
2024-02-19T11:04:30.411Z,54.43
2024-02-19T11:05:30.542Z,52.81
2024-02-19T11:06:31.845Z,52.58
2024-02-19T11:07:30.452Z,54.48
2024-02-19T11:08:30.368Z,55.05
2024-02-19T11:09:30.976Z,54.43
2024-02-19T11:10:30.496Z,55.71
2024-02-19T11:11:30.468Z,56.20
2024-02-19T11:12:30.431Z,57.12
2024-02-19T11:13:30.645Z,58.44
2024-02-19T11:14:30.436Z,57.84
2024-02-19T11:15:30.410Z,57.92
2024-02-19T11:16:30.485Z,58.47
2024-02-19T11:17:30.430Z,58.34
2024-02-19T11:18:30.552Z,59.12
2024-02-19T11:19:30.571Z,59.93
2024-02-19T11:20:30.404Z,57.06
2024-02-19T11:21:30.454Z,56.51
2024-02-19T11:22:30.391Z,55.82
2024-02-19T11:23:30.627Z,56.50
2024-02-19T11:24:30.408Z,56.48
2024-02-19T11:25:30.639Z,58.27
2024-02-19T11:26:30.402Z,59.50
2024-02-19T11:27:30.458Z,59.81
2024-02-19T11:28:30.474Z,59.17
2024-02-19T11:29:39.808Z,59.02
2024-02-19T11:30:31.434Z,57.28
2024-02-19T11:31:30.499Z,56.82
2024-02-19T11:32:30.560Z,57.01
2024-02-19T11:33:30.561Z,56.68
2024-02-19T11:34:30.672Z,55.92
2024-02-19T11:35:32.731Z,55.21
2024-02-19T11:36:30.477Z,55.44
2024-02-19T11:37:30.830Z,56.19
2024-02-19T11:38:31.688Z,56.19
2024-02-19T11:39:31.515Z,56.06
2024-02-19T11:40:33.616Z,56.40
2024-02-19T11:41:30.514Z,57.16
2024-02-19T11:42:30.612Z,57.32
2024-02-19T11:43:30.631Z,56.19
2024-02-19T11:44:30.646Z,56.61
2024-02-19T11:45:30.434Z,55.84
2024-02-19T11:46:30.519Z,55.55
2024-02-19T11:47:30.558Z,56.09
2024-02-19T11:48:30.521Z,56.98
2024-02-19T11:49:30.708Z,56.61
2024-02-19T11:50:30.682Z,56.22
2024-02-19T11:51:30.461Z,56.06
2024-02-19T11:52:31.374Z,56.55
2024-02-19T11:53:30.615Z,56.00
2024-02-19T11:54:30.501Z,56.15
2024-02-19T11:55:30.874Z,56.55
2024-02-19T11:56:30.570Z,55.94
2024-02-19T11:57:30.644Z,55.66
2024-02-19T11:58:30.737Z,55.72
2024-02-19T11:59:30.619Z,57.15
2024-02-19T12:00:30.500Z,58.21
2024-02-19T12:01:30.502Z,57.93
2024-02-19T12:02:30.522Z,58.13
2024-02-19T12:03:30.498Z,58.33
2024-02-19T12:04:30.646Z,56.40
2024-02-19T12:05:30.593Z,55.73
2024-02-19T12:06:31.204Z,54.89
2024-02-19T12:07:33.168Z,54.28
2024-02-19T12:08:30.603Z,54.64
2024-02-19T12:09:30.635Z,55.28
2024-02-19T12:10:31.041Z,55.09
2024-02-19T12:11:32.227Z,55.28
2024-02-19T12:12:30.510Z,55.91
2024-02-19T12:13:30.759Z,56.59
2024-02-19T12:14:30.716Z,56.59
2024-02-19T12:15:30.761Z,56.60
2024-02-19T12:16:30.615Z,55.90
2024-02-19T12:17:33.249Z,55.75
2024-02-19T12:18:30.667Z,55.21
2024-02-19T12:19:30.774Z,56.31
2024-02-19T12:20:30.551Z,57.84
2024-02-19T12:21:30.672Z,58.81
2024-02-19T12:22:30.538Z,57.17
2024-02-19T12:23:30.574Z,56.77
2024-02-19T12:24:30.625Z,56.29
2024-02-19T12:25:30.707Z,57.22
2024-02-19T12:26:30.729Z,56.49
2024-02-19T12:27:30.715Z,56.63
2024-02-19T12:28:30.667Z,56.43
2024-02-19T12:29:30.737Z,55.72
2024-02-19T12:30:30.546Z,55.44
2024-02-19T12:31:30.534Z,55.71
2024-02-19T12:32:30.552Z,55.51
2024-02-19T12:33:35.277Z,56.53
2024-02-19T12:53:39.895Z,60.15
2024-02-19T12:54:39.485Z,60.32
2024-02-19T12:55:39.556Z,60.40
2024-02-19T12:56:40.160Z,60.69
2024-02-19T12:57:39.425Z,61.43
2024-02-19T12:58:39.451Z,61.26
2024-02-19T12:59:39.476Z,60.95
2024-02-19T13:00:39.414Z,59.96
2024-02-19T13:01:39.490Z,60.17
2024-02-19T13:02:39.465Z,60.66
2024-02-19T13:03:39.482Z,60.96
2024-02-19T13:04:39.652Z,61.06
2024-02-19T13:05:39.552Z,61.50
2024-02-19T13:06:39.549Z,61.96
2024-02-19T13:07:39.595Z,62.39
2024-02-19T13:08:39.543Z,62.62
2024-02-19T13:09:39.459Z,62.77
2024-02-19T13:10:39.568Z,62.23
2024-02-19T13:11:39.492Z,61.61
2024-02-19T13:12:40.219Z,62.08
2024-02-19T13:13:40.337Z,62.05
2024-02-19T13:14:39.907Z,60.80